sensor_id;sensor_type;location;lat;lon;timestamp;P1;durP1;ratioP1;P2;durP2;ratioP2
20894;SDS011;10607;42.066;24.742;2024-03-02T00:01:18;66.37;;;30.87;;
20894;SDS011;10607;42.066;24.742;2024-03-02T00:03:44;61.97;;;28.43;;
20894;SDS011;10607;42.066;24.742;2024-03-02T00:06:09;63.07;;;29.17;;
20894;SDS011;10607;42.066;24.742;2024-03-02T00:08:35;65.70;;;30.80;;
20894;SDS011;10607;42.066;24.742;2024-03-02T00:11:00;64.47;;;30.97;;
20894;SDS011;10607;42.066;24.742;2024-03-02T00:13:27;69.80;;;31.73;;
20894;SDS011;10607;42.066;24.742;2024-03-02T00:15:55;73.77;;;32.33;;
20894;SDS011;10607;42.066;24.742;2024-03-02T00:18:25;70.03;;;32.30;;
20894;SDS011;10607;42.066;24.742;2024-03-02T00:20:54;69.57;;;33.67;;
20894;SDS011;10607;42.066;24.742;2024-03-02T00:23:21;80.07;;;32.90;;
20894;SDS011;10607;42.066;24.742;2024-03-02T00:25:47;76.67;;;32.20;;
20894;SDS011;10607;42.066;24.742;2024-03-02T00:28:14;74.70;;;34.00;;
20894;SDS011;10607;42.066;24.742;2024-03-02T00:33:30;85.23;;;36.23;;
20894;SDS011;10607;42.066;24.742;2024-03-02T00:35:55;81.83;;;38.90;;
20894;SDS011;10607;42.066;24.742;2024-03-02T00:38:21;94.33;;;38.50;;
20894;SDS011;10607;42.066;24.742;2024-03-02T00:40:47;83.77;;;36.43;;
20894;SDS011;10607;42.066;24.742;2024-03-02T00:45:56;89.80;;;38.43;;
20894;SDS011;10607;42.066;24.742;2024-03-02T00:48:22;88.77;;;38.33;;
20894;SDS011;10607;42.066;24.742;2024-03-02T00:50:50;96.63;;;40.70;;
20894;SDS011;10607;42.066;24.742;2024-03-02T00:53:23;97.90;;;42.47;;
20894;SDS011;10607;42.066;24.742;2024-03-02T00:55:49;91.97;;;39.07;;
20894;SDS011;10607;42.066;24.742;2024-03-02T00:58:14;96.87;;;39.43;;
20894;SDS011;10607;42.066;24.742;2024-03-02T01:00:40;102.97;;;40.70;;
20894;SDS011;10607;42.066;24.742;2024-03-02T01:03:05;100.70;;;41.60;;
20894;SDS011;10607;42.066;24.742;2024-03-02T01:05:30;102.43;;;41.77;;
20894;SDS011;10607;42.066;24.742;2024-03-02T01:07:55;102.40;;;41.13;;
20894;SDS011;10607;42.066;24.742;2024-03-02T01:10:21;101.77;;;39.43;;
20894;SDS011;10607;42.066;24.742;2024-03-02T01:12:46;109.07;;;40.83;;
20894;SDS011;10607;42.066;24.742;2024-03-02T01:15:11;118.83;;;40.30;;
20894;SDS011;10607;42.066;24.742;2024-03-02T01:17:36;106.43;;;37.70;;
20894;SDS011;10607;42.066;24.742;2024-03-02T01:20:01;118.63;;;39.60;;
20894;SDS011;10607;42.066;24.742;2024-03-02T01:22:27;113.00;;;39.27;;
20894;SDS011;10607;42.066;24.742;2024-03-02T01:24:52;107.70;;;38.00;;
20894;SDS011;10607;42.066;24.742;2024-03-02T01:27:17;113.57;;;38.90;;
20894;SDS011;10607;42.066;24.742;2024-03-02T01:29:43;120.30;;;40.30;;
20894;SDS011;10607;42.066;24.742;2024-03-02T01:32:09;121.10;;;39.83;;
20894;SDS011;10607;42.066;24.742;2024-03-02T01:34:34;119.33;;;38.73;;
20894;SDS011;10607;42.066;24.742;2024-03-02T01:36:59;121.90;;;38.57;;
20894;SDS011;10607;42.066;24.742;2024-03-02T01:39:24;115.43;;;37.90;;
20894;SDS011;10607;42.066;24.742;2024-03-02T01:41:49;125.73;;;39.87;;
20894;SDS011;10607;42.066;24.742;2024-03-02T01:44:15;130.47;;;41.37;;
20894;SDS011;10607;42.066;24.742;2024-03-02T01:46:40;127.07;;;41.57;;
20894;SDS011;10607;42.066;24.742;2024-03-02T01:49:05;127.43;;;39.27;;
20894;SDS011;10607;42.066;24.742;2024-03-02T01:51:31;133.23;;;39.57;;
20894;SDS011;10607;42.066;24.742;2024-03-02T01:53:56;128.53;;;38.97;;
20894;SDS011;10607;42.066;24.742;2024-03-02T01:56:22;128.43;;;39.60;;
20894;SDS011;10607;42.066;24.742;2024-03-02T01:58:47;136.60;;;40.07;;
20894;SDS011;10607;42.066;24.742;2024-03-02T02:01:12;126.23;;;39.27;;
20894;SDS011;10607;42.066;24.742;2024-03-02T02:03:37;143.07;;;40.67;;
20894;SDS011;10607;42.066;24.742;2024-03-02T02:06:02;130.63;;;39.47;;
20894;SDS011;10607;42.066;24.742;2024-03-02T02:08:28;155.57;;;40.97;;
20894;SDS011;10607;42.066;24.742;2024-03-02T02:10:53;154.03;;;43.47;;
20894;SDS011;10607;42.066;24.742;2024-03-02T02:13:18;147.90;;;41.83;;
20894;SDS011;10607;42.066;24.742;2024-03-02T02:15:43;132.87;;;37.10;;
20894;SDS011;10607;42.066;24.742;2024-03-02T02:18:09;144.90;;;37.77;;
20894;SDS011;10607;42.066;24.742;2024-03-02T02:20:34;126.63;;;37.60;;
20894;SDS011;10607;42.066;24.742;2024-03-02T02:25:24;130.93;;;37.00;;
20894;SDS011;10607;42.066;24.742;2024-03-02T02:27:50;131.43;;;35.87;;
20894;SDS011;10607;42.066;24.742;2024-03-02T02:30:23;114.87;;;33.97;;
20894;SDS011;10607;42.066;24.742;2024-03-02T02:32:48;117.47;;;35.87;;
20894;SDS011;10607;42.066;24.742;2024-03-02T02:35:14;120.47;;;34.93;;
20894;SDS011;10607;42.066;24.742;2024-03-02T02:37:39;130.83;;;34.63;;
20894;SDS011;10607;42.066;24.742;2024-03-02T02:40:04;129.03;;;34.67;;
20894;SDS011;10607;42.066;24.742;2024-03-02T02:42:30;126.30;;;33.97;;
20894;SDS011;10607;42.066;24.742;2024-03-02T02:44:55;126.27;;;36.20;;
20894;SDS011;10607;42.066;24.742;2024-03-02T02:47:20;151.83;;;36.30;;
20894;SDS011;10607;42.066;24.742;2024-03-02T02:49:45;144.63;;;36.83;;
20894;SDS011;10607;42.066;24.742;2024-03-02T02:52:11;123.23;;;36.87;;
20894;SDS011;10607;42.066;24.742;2024-03-02T02:54:37;132.83;;;35.23;;
20894;SDS011;10607;42.066;24.742;2024-03-02T02:57:02;123.83;;;34.60;;
20894;SDS011;10607;42.066;24.742;2024-03-02T02:59:28;131.13;;;34.03;;
20894;SDS011;10607;42.066;24.742;2024-03-02T03:01:53;118.70;;;32.67;;
20894;SDS011;10607;42.066;24.742;2024-03-02T03:04:19;124.10;;;34.23;;
20894;SDS011;10607;42.066;24.742;2024-03-02T03:06:44;137.93;;;35.80;;
20894;SDS011;10607;42.066;24.742;2024-03-02T03:09:09;140.83;;;34.03;;
20894;SDS011;10607;42.066;24.742;2024-03-02T03:11:36;158.87;;;33.50;;
20894;SDS011;10607;42.066;24.742;2024-03-02T03:14:01;114.03;;;32.17;;
20894;SDS011;10607;42.066;24.742;2024-03-02T03:16:26;134.50;;;35.80;;
20894;SDS011;10607;42.066;24.742;2024-03-02T03:18:51;165.63;;;32.47;;
20894;SDS011;10607;42.066;24.742;2024-03-02T03:21:18;129.63;;;32.20;;
20894;SDS011;10607;42.066;24.742;2024-03-02T03:23:43;129.43;;;28.97;;
20894;SDS011;10607;42.066;24.742;2024-03-02T03:26:09;103.57;;;29.23;;
20894;SDS011;10607;42.066;24.742;2024-03-02T03:28:34;108.07;;;31.27;;
20894;SDS011;10607;42.066;24.742;2024-03-02T03:30:59;161.27;;;32.50;;
20894;SDS011;10607;42.066;24.742;2024-03-02T03:33:24;138.90;;;33.80;;
20894;SDS011;10607;42.066;24.742;2024-03-02T03:35:49;101.93;;;30.23;;
20894;SDS011;10607;42.066;24.742;2024-03-02T03:38:15;125.60;;;32.77;;
20894;SDS011;10607;42.066;24.742;2024-03-02T03:40:40;140.53;;;31.57;;
20894;SDS011;10607;42.066;24.742;2024-03-02T03:43:05;113.93;;;32.50;;
20894;SDS011;10607;42.066;24.742;2024-03-02T03:45:30;121.73;;;31.90;;
20894;SDS011;10607;42.066;24.742;2024-03-02T03:47:56;118.97;;;33.80;;
20894;SDS011;10607;42.066;24.742;2024-03-02T03:50:21;126.23;;;32.43;;
20894;SDS011;10607;42.066;24.742;2024-03-02T03:52:46;115.70;;;32.57;;
20894;SDS011;10607;42.066;24.742;2024-03-02T03:55:11;115.70;;;32.43;;
20894;SDS011;10607;42.066;24.742;2024-03-02T03:57:36;138.87;;;33.23;;
20894;SDS011;10607;42.066;24.742;2024-03-02T04:00:02;125.60;;;33.20;;
20894;SDS011;10607;42.066;24.742;2024-03-02T04:02:28;150.43;;;34.53;;
20894;SDS011;10607;42.066;24.742;2024-03-02T04:04:53;121.40;;;33.33;;
20894;SDS011;10607;42.066;24.742;2024-03-02T04:07:18;124.63;;;31.60;;
20894;SDS011;10607;42.066;24.742;2024-03-02T04:09:44;135.20;;;34.53;;
20894;SDS011;10607;42.066;24.742;2024-03-02T04:12:09;118.53;;;32.37;;
20894;SDS011;10607;42.066;24.742;2024-03-02T04:14:34;218.33;;;35.07;;
20894;SDS011;10607;42.066;24.742;2024-03-02T04:16:59;183.03;;;31.50;;
20894;SDS011;10607;42.066;24.742;2024-03-02T04:19:25;194.43;;;32.43;;
20894;SDS011;10607;42.066;24.742;2024-03-02T04:21:50;135.97;;;31.90;;
20894;SDS011;10607;42.066;24.742;2024-03-02T04:24:15;198.77;;;35.77;;
20894;SDS011;10607;42.066;24.742;2024-03-02T04:26:40;101.33;;;30.90;;
20894;SDS011;10607;42.066;24.742;2024-03-02T04:29:06;86.97;;;29.77;;
20894;SDS011;10607;42.066;24.742;2024-03-02T04:31:31;76.23;;;27.83;;
20894;SDS011;10607;42.066;24.742;2024-03-02T04:33:56;76.37;;;28.53;;
20894;SDS011;10607;42.066;24.742;2024-03-02T04:36:21;79.03;;;28.10;;
20894;SDS011;10607;42.066;24.742;2024-03-02T04:38:46;73.20;;;26.80;;
20894;SDS011;10607;42.066;24.742;2024-03-02T04:41:12;61.87;;;25.37;;
20894;SDS011;10607;42.066;24.742;2024-03-02T04:43:37;77.67;;;28.23;;
20894;SDS011;10607;42.066;24.742;2024-03-02T04:46:02;66.23;;;27.47;;
20894;SDS011;10607;42.066;24.742;2024-03-02T04:48:27;69.70;;;27.83;;
20894;SDS011;10607;42.066;24.742;2024-03-02T04:50:53;70.27;;;26.13;;
20894;SDS011;10607;42.066;24.742;2024-03-02T04:53:18;73.43;;;27.83;;
20894;SDS011;10607;42.066;24.742;2024-03-02T04:55:43;72.67;;;26.10;;
20894;SDS011;10607;42.066;24.742;2024-03-02T04:58:08;72.23;;;27.40;;
20894;SDS011;10607;42.066;24.742;2024-03-02T05:00:34;81.40;;;28.20;;
20894;SDS011;10607;42.066;24.742;2024-03-02T05:03:00;81.57;;;29.17;;
20894;SDS011;10607;42.066;24.742;2024-03-02T05:05:25;74.60;;;27.33;;
20894;SDS011;10607;42.066;24.742;2024-03-02T05:07:51;79.13;;;28.43;;
20894;SDS011;10607;42.066;24.742;2024-03-02T05:10:16;81.57;;;29.07;;
20894;SDS011;10607;42.066;24.742;2024-03-02T05:12:41;82.47;;;28.73;;
20894;SDS011;10607;42.066;24.742;2024-03-02T05:15:10;85.20;;;29.10;;
20894;SDS011;10607;42.066;24.742;2024-03-02T05:17:39;78.53;;;27.03;;
20894;SDS011;10607;42.066;24.742;2024-03-02T05:20:05;95.23;;;30.93;;
20894;SDS011;10607;42.066;24.742;2024-03-02T05:22:30;79.07;;;28.93;;
20894;SDS011;10607;42.066;24.742;2024-03-02T05:24:56;81.97;;;28.70;;
20894;SDS011;10607;42.066;24.742;2024-03-02T05:27:21;85.70;;;29.37;;
20894;SDS011;10607;42.066;24.742;2024-03-02T05:29:47;73.27;;;28.70;;
20894;SDS011;10607;42.066;24.742;2024-03-02T05:32:12;80.63;;;27.50;;
20894;SDS011;10607;42.066;24.742;2024-03-02T05:34:37;79.30;;;27.03;;
20894;SDS011;10607;42.066;24.742;2024-03-02T05:37:02;71.07;;;25.47;;
20894;SDS011;10607;42.066;24.742;2024-03-02T05:39:28;72.03;;;26.57;;
20894;SDS011;10607;42.066;24.742;2024-03-02T05:41:53;76.53;;;26.80;;
20894;SDS011;10607;42.066;24.742;2024-03-02T05:44:18;81.67;;;27.73;;
20894;SDS011;10607;42.066;24.742;2024-03-02T05:46:44;66.07;;;25.37;;
20894;SDS011;10607;42.066;24.742;2024-03-02T05:49:10;68.30;;;24.10;;
20894;SDS011;10607;42.066;24.742;2024-03-02T05:51:35;73.23;;;24.50;;
20894;SDS011;10607;42.066;24.742;2024-03-02T05:54:00;75.33;;;26.40;;
20894;SDS011;10607;42.066;24.742;2024-03-02T05:56:26;63.87;;;24.43;;
20894;SDS011;10607;42.066;24.742;2024-03-02T05:58:51;65.90;;;25.90;;
20894;SDS011;10607;42.066;24.742;2024-03-02T06:01:35;80.27;;;26.53;;
20894;SDS011;10607;42.066;24.742;2024-03-02T06:04:00;64.23;;;25.23;;
20894;SDS011;10607;42.066;24.742;2024-03-02T06:06:25;63.63;;;26.10;;
20894;SDS011;10607;42.066;24.742;2024-03-02T06:08:51;61.20;;;24.60;;
20894;SDS011;10607;42.066;24.742;2024-03-02T06:11:17;70.03;;;24.87;;
20894;SDS011;10607;42.066;24.742;2024-03-02T06:13:43;63.17;;;25.63;;
20894;SDS011;10607;42.066;24.742;2024-03-02T06:16:09;72.40;;;25.67;;
20894;SDS011;10607;42.066;24.742;2024-03-02T06:18:34;62.13;;;24.10;;
20894;SDS011;10607;42.066;24.742;2024-03-02T06:20:59;53.90;;;23.77;;
20894;SDS011;10607;42.066;24.742;2024-03-02T06:23:26;56.23;;;22.73;;
20894;SDS011;10607;42.066;24.742;2024-03-02T06:25:51;56.63;;;23.70;;
20894;SDS011;10607;42.066;24.742;2024-03-02T06:28:16;57.60;;;23.67;;
20894;SDS011;10607;42.066;24.742;2024-03-02T06:30:41;54.03;;;23.77;;
20894;SDS011;10607;42.066;24.742;2024-03-02T06:33:08;66.73;;;28.80;;
20894;SDS011;10607;42.066;24.742;2024-03-02T06:35:33;96.87;;;43.03;;
20894;SDS011;10607;42.066;24.742;2024-03-02T06:38:00;131.03;;;64.43;;
20894;SDS011;10607;42.066;24.742;2024-03-02T06:40:25;140.07;;;68.77;;
20894;SDS011;10607;42.066;24.742;2024-03-02T06:42:50;87.73;;;40.97;;
20894;SDS011;10607;42.066;24.742;2024-03-02T06:45:15;77.30;;;28.33;;
20894;SDS011;10607;42.066;24.742;2024-03-02T06:47:41;63.43;;;26.07;;
20894;SDS011;10607;42.066;24.742;2024-03-02T06:50:06;63.60;;;24.73;;
20894;SDS011;10607;42.066;24.742;2024-03-02T06:52:32;54.83;;;23.17;;
20894;SDS011;10607;42.066;24.742;2024-03-02T06:54:57;60.67;;;27.10;;
20894;SDS011;10607;42.066;24.742;2024-03-02T06:57:22;77.20;;;31.90;;
20894;SDS011;10607;42.066;24.742;2024-03-02T06:59:49;65.00;;;26.80;;
20894;SDS011;10607;42.066;24.742;2024-03-02T07:02:16;83.10;;;30.73;;
20894;SDS011;10607;42.066;24.742;2024-03-02T07:04:41;84.67;;;31.77;;
20894;SDS011;10607;42.066;24.742;2024-03-02T07:07:06;93.57;;;32.83;;
20894;SDS011;10607;42.066;24.742;2024-03-02T07:09:32;79.33;;;29.87;;
20894;SDS011;10607;42.066;24.742;2024-03-02T07:11:57;83.53;;;31.50;;
20894;SDS011;10607;42.066;24.742;2024-03-02T07:14:23;76.60;;;28.60;;
20894;SDS011;10607;42.066;24.742;2024-03-02T07:17:08;85.60;;;33.23;;
20894;SDS011;10607;42.066;24.742;2024-03-02T07:19:33;68.10;;;28.17;;
20894;SDS011;10607;42.066;24.742;2024-03-02T07:21:58;78.00;;;28.73;;
20894;SDS011;10607;42.066;24.742;2024-03-02T07:24:23;65.23;;;26.80;;
20894;SDS011;10607;42.066;24.742;2024-03-02T07:26:49;75.20;;;28.60;;
20894;SDS011;10607;42.066;24.742;2024-03-02T07:29:14;88.10;;;41.53;;
20894;SDS011;10607;42.066;24.742;2024-03-02T07:31:39;91.63;;;39.27;;
20894;SDS011;10607;42.066;24.742;2024-03-02T07:34:05;67.30;;;28.23;;
20894;SDS011;10607;42.066;24.742;2024-03-02T07:36:30;156.67;;;72.87;;
20894;SDS011;10607;42.066;24.742;2024-03-02T07:38:55;104.83;;;45.60;;
20894;SDS011;10607;42.066;24.742;2024-03-02T07:41:21;75.40;;;35.53;;
20894;SDS011;10607;42.066;24.742;2024-03-02T07:43:46;57.40;;;29.00;;
20894;SDS011;10607;42.066;24.742;2024-03-02T07:46:11;60.17;;;26.23;;
20894;SDS011;10607;42.066;24.742;2024-03-02T07:48:37;71.87;;;29.47;;
20894;SDS011;10607;42.066;24.742;2024-03-02T07:51:02;60.00;;;27.20;;
20894;SDS011;10607;42.066;24.742;2024-03-02T07:53:28;66.00;;;27.27;;
20894;SDS011;10607;42.066;24.742;2024-03-02T07:55:53;61.00;;;33.53;;
20894;SDS011;10607;42.066;24.742;2024-03-02T07:58:18;61.07;;;29.30;;
20894;SDS011;10607;42.066;24.742;2024-03-02T08:00:44;89.13;;;39.00;;
20894;SDS011;10607;42.066;24.742;2024-03-02T08:03:09;76.90;;;31.00;;
20894;SDS011;10607;42.066;24.742;2024-03-02T08:05:38;56.30;;;27.50;;
20894;SDS011;10607;42.066;24.742;2024-03-02T08:08:04;58.70;;;26.67;;
20894;SDS011;10607;42.066;24.742;2024-03-02T08:10:29;64.23;;;28.63;;
20894;SDS011;10607;42.066;24.742;2024-03-02T08:12:54;38.20;;;19.07;;
20894;SDS011;10607;42.066;24.742;2024-03-02T08:15:20;43.03;;;19.63;;
20894;SDS011;10607;42.066;24.742;2024-03-02T08:17:45;50.83;;;21.87;;
20894;SDS011;10607;42.066;24.742;2024-03-02T08:20:13;64.97;;;28.30;;
20894;SDS011;10607;42.066;24.742;2024-03-02T08:22:39;43.47;;;20.57;;
20894;SDS011;10607;42.066;24.742;2024-03-02T08:25:04;32.93;;;16.30;;
20894;SDS011;10607;42.066;24.742;2024-03-02T08:27:30;31.87;;;15.77;;
20894;SDS011;10607;42.066;24.742;2024-03-02T08:29:57;40.70;;;19.10;;
20894;SDS011;10607;42.066;24.742;2024-03-02T08:32:22;50.63;;;30.27;;
20894;SDS011;10607;42.066;24.742;2024-03-02T08:34:47;41.43;;;21.30;;
20894;SDS011;10607;42.066;24.742;2024-03-02T08:37:14;45.70;;;20.80;;
20894;SDS011;10607;42.066;24.742;2024-03-02T08:39:39;50.60;;;23.67;;
20894;SDS011;10607;42.066;24.742;2024-03-02T08:42:04;52.83;;;26.23;;
20894;SDS011;10607;42.066;24.742;2024-03-02T08:44:29;133.53;;;56.57;;
20894;SDS011;10607;42.066;24.742;2024-03-02T08:46:55;66.80;;;33.37;;
20894;SDS011;10607;42.066;24.742;2024-03-02T08:49:20;89.80;;;42.40;;
20894;SDS011;10607;42.066;24.742;2024-03-02T08:51:45;152.37;;;59.43;;
20894;SDS011;10607;42.066;24.742;2024-03-02T08:54:19;99.03;;;45.97;;
20894;SDS011;10607;42.066;24.742;2024-03-02T08:56:44;77.73;;;33.57;;
20894;SDS011;10607;42.066;24.742;2024-03-02T08:59:09;54.00;;;27.43;;
20894;SDS011;10607;42.066;24.742;2024-03-02T09:01:34;50.03;;;24.33;;
20894;SDS011;10607;42.066;24.742;2024-03-02T09:04:00;52.87;;;25.77;;
20894;SDS011;10607;42.066;24.742;2024-03-02T09:06:25;44.23;;;22.73;;
20894;SDS011;10607;42.066;24.742;2024-03-02T09:08:50;50.07;;;26.37;;
20894;SDS011;10607;42.066;24.742;2024-03-02T09:11:16;46.77;;;23.10;;
20894;SDS011;10607;42.066;24.742;2024-03-02T09:13:42;130.23;;;61.50;;
20894;SDS011;10607;42.066;24.742;2024-03-02T09:16:07;67.13;;;34.50;;
20894;SDS011;10607;42.066;24.742;2024-03-02T09:18:35;86.30;;;37.27;;
20894;SDS011;10607;42.066;24.742;2024-03-02T09:21:01;227.27;;;92.97;;
20894;SDS011;10607;42.066;24.742;2024-03-02T09:23:26;126.00;;;56.63;;
20894;SDS011;10607;42.066;24.742;2024-03-02T09:25:51;127.07;;;53.30;;
20894;SDS011;10607;42.066;24.742;2024-03-02T09:28:16;45.23;;;22.77;;
20894;SDS011;10607;42.066;24.742;2024-03-02T09:30:41;47.03;;;24.23;;
20894;SDS011;10607;42.066;24.742;2024-03-02T09:33:07;46.03;;;23.10;;
20894;SDS011;10607;42.066;24.742;2024-03-02T09:35:32;50.40;;;25.30;;
20894;SDS011;10607;42.066;24.742;2024-03-02T09:37:57;53.20;;;27.23;;
20894;SDS011;10607;42.066;24.742;2024-03-02T09:40:22;49.57;;;24.57;;
20894;SDS011;10607;42.066;24.742;2024-03-02T09:42:48;43.97;;;23.70;;
20894;SDS011;10607;42.066;24.742;2024-03-02T09:45:18;49.97;;;26.50;;
20894;SDS011;10607;42.066;24.742;2024-03-02T09:47:45;47.20;;;24.87;;
20894;SDS011;10607;42.066;24.742;2024-03-02T09:50:10;51.30;;;25.17;;
20894;SDS011;10607;42.066;24.742;2024-03-02T09:52:35;53.57;;;26.00;;
20894;SDS011;10607;42.066;24.742;2024-03-02T09:55:01;48.87;;;23.40;;
20894;SDS011;10607;42.066;24.742;2024-03-02T09:57:27;58.07;;;29.80;;
20894;SDS011;10607;42.066;24.742;2024-03-02T09:59:52;55.77;;;28.10;;
20894;SDS011;10607;42.066;24.742;2024-03-02T10:02:18;83.73;;;44.63;;
20894;SDS011;10607;42.066;24.742;2024-03-02T10:04:44;103.53;;;57.63;;
20894;SDS011;10607;42.066;24.742;2024-03-02T10:07:16;99.43;;;56.87;;
20894;SDS011;10607;42.066;24.742;2024-03-02T10:09:43;63.23;;;35.07;;
20894;SDS011;10607;42.066;24.742;2024-03-02T10:12:09;85.73;;;41.10;;
20894;SDS011;10607;42.066;24.742;2024-03-02T10:14:34;50.20;;;27.87;;
20894;SDS011;10607;42.066;24.742;2024-03-02T10:17:03;82.10;;;37.27;;
20894;SDS011;10607;42.066;24.742;2024-03-02T10:19:29;112.10;;;40.97;;
20894;SDS011;10607;42.066;24.742;2024-03-02T10:21:58;92.77;;;36.73;;
20894;SDS011;10607;42.066;24.742;2024-03-02T10:24:23;52.53;;;27.47;;
20894;SDS011;10607;42.066;24.742;2024-03-02T10:26:49;85.37;;;35.97;;
20894;SDS011;10607;42.066;24.742;2024-03-02T10:29:14;65.80;;;30.33;;
20894;SDS011;10607;42.066;24.742;2024-03-02T10:31:40;54.93;;;26.77;;
20894;SDS011;10607;42.066;24.742;2024-03-02T10:34:06;31.33;;;18.70;;
20894;SDS011;10607;42.066;24.742;2024-03-02T10:36:32;142.93;;;42.97;;
20894;SDS011;10607;42.066;24.742;2024-03-02T10:38:58;137.70;;;46.00;;
20894;SDS011;10607;42.066;24.742;2024-03-02T10:41:24;184.07;;;59.80;;
20894;SDS011;10607;42.066;24.742;2024-03-02T10:43:52;99.53;;;39.03;;
20894;SDS011;10607;42.066;24.742;2024-03-02T10:46:19;169.70;;;51.57;;
20894;SDS011;10607;42.066;24.742;2024-03-02T10:48:45;429.10;;;117.87;;
20894;SDS011;10607;42.066;24.742;2024-03-02T10:51:10;50.37;;;26.37;;
20894;SDS011;10607;42.066;24.742;2024-03-02T10:53:36;46.10;;;23.33;;
20894;SDS011;10607;42.066;24.742;2024-03-02T10:56:01;53.87;;;25.97;;
20894;SDS011;10607;42.066;24.742;2024-03-02T10:58:31;44.83;;;24.03;;
20894;SDS011;10607;42.066;24.742;2024-03-02T11:00:56;60.30;;;26.37;;
20894;SDS011;10607;42.066;24.742;2024-03-02T11:03:22;54.90;;;28.53;;
20894;SDS011;10607;42.066;24.742;2024-03-02T11:05:48;46.97;;;25.47;;
20894;SDS011;10607;42.066;24.742;2024-03-02T11:08:13;45.37;;;25.90;;
20894;SDS011;10607;42.066;24.742;2024-03-02T11:10:45;54.67;;;27.90;;
20894;SDS011;10607;42.066;24.742;2024-03-02T11:13:13;48.37;;;25.40;;
20894;SDS011;10607;42.066;24.742;2024-03-02T11:15:39;55.33;;;26.90;;
20894;SDS011;10607;42.066;24.742;2024-03-02T11:18:05;45.90;;;25.70;;
20894;SDS011;10607;42.066;24.742;2024-03-02T11:20:34;45.90;;;25.00;;
20894;SDS011;10607;42.066;24.742;2024-03-02T11:23:04;56.73;;;25.27;;
20894;SDS011;10607;42.066;24.742;2024-03-02T11:25:31;56.47;;;24.90;;
20894;SDS011;10607;42.066;24.742;2024-03-02T11:28:00;45.20;;;24.80;;
20894;SDS011;10607;42.066;24.742;2024-03-02T11:32:57;38.70;;;21.97;;
20894;SDS011;10607;42.066;24.742;2024-03-02T11:35:23;51.97;;;23.03;;
20894;SDS011;10607;42.066;24.742;2024-03-02T11:37:48;40.17;;;21.63;;
20894;SDS011;10607;42.066;24.742;2024-03-02T11:40:14;37.00;;;21.77;;
20894;SDS011;10607;42.066;24.742;2024-03-02T11:42:39;40.30;;;23.20;;
20894;SDS011;10607;42.066;24.742;2024-03-02T11:45:05;38.97;;;23.23;;
20894;SDS011;10607;42.066;24.742;2024-03-02T11:47:33;43.50;;;25.20;;
20894;SDS011;10607;42.066;24.742;2024-03-02T11:49:58;39.23;;;21.67;;
20894;SDS011;10607;42.066;24.742;2024-03-02T11:52:24;36.00;;;21.37;;
20894;SDS011;10607;42.066;24.742;2024-03-02T11:54:50;32.07;;;20.40;;
20894;SDS011;10607;42.066;24.742;2024-03-02T11:57:17;31.17;;;19.97;;
20894;SDS011;10607;42.066;24.742;2024-03-02T11:59:42;29.60;;;19.73;;
20894;SDS011;10607;42.066;24.742;2024-03-02T12:02:12;30.87;;;19.83;;
20894;SDS011;10607;42.066;24.742;2024-03-02T12:04:39;31.13;;;19.63;;
20894;SDS011;10607;42.066;24.742;2024-03-02T12:07:05;31.63;;;19.53;;
20894;SDS011;10607;42.066;24.742;2024-03-02T12:09:30;27.47;;;18.70;;
20894;SDS011;10607;42.066;24.742;2024-03-02T12:12:02;30.37;;;18.67;;
20894;SDS011;10607;42.066;24.742;2024-03-02T12:14:28;31.33;;;20.30;;
20894;SDS011;10607;42.066;24.742;2024-03-02T12:16:54;28.17;;;19.50;;
20894;SDS011;10607;42.066;24.742;2024-03-02T12:19:20;33.67;;;21.33;;
20894;SDS011;10607;42.066;24.742;2024-03-02T12:21:45;38.57;;;20.77;;
20894;SDS011;10607;42.066;24.742;2024-03-02T12:24:11;33.73;;;21.33;;
20894;SDS011;10607;42.066;24.742;2024-03-02T12:26:36;27.87;;;19.23;;
20894;SDS011;10607;42.066;24.742;2024-03-02T12:29:01;35.93;;;22.43;;
20894;SDS011;10607;42.066;24.742;2024-03-02T12:31:27;33.93;;;22.33;;
20894;SDS011;10607;42.066;24.742;2024-03-02T12:33:52;29.37;;;21.10;;
20894;SDS011;10607;42.066;24.742;2024-03-02T12:36:17;30.00;;;21.53;;
20894;SDS011;10607;42.066;24.742;2024-03-02T12:38:43;29.27;;;18.43;;
20894;SDS011;10607;42.066;24.742;2024-03-02T12:41:09;25.23;;;17.90;;
20894;SDS011;10607;42.066;24.742;2024-03-02T12:43:34;24.77;;;16.70;;
20894;SDS011;10607;42.066;24.742;2024-03-02T12:45:59;18.43;;;12.80;;
20894;SDS011;10607;42.066;24.742;2024-03-02T12:48:25;15.77;;;11.50;;
20894;SDS011;10607;42.066;24.742;2024-03-02T12:50:50;15.13;;;11.67;;
20894;SDS011;10607;42.066;24.742;2024-03-02T12:53:15;16.43;;;10.83;;
20894;SDS011;10607;42.066;24.742;2024-03-02T12:55:41;16.33;;;11.17;;
20894;SDS011;10607;42.066;24.742;2024-03-02T12:58:06;15.30;;;10.57;;
20894;SDS011;10607;42.066;24.742;2024-03-02T13:00:32;10.87;;;9.53;;
20894;SDS011;10607;42.066;24.742;2024-03-02T13:03:00;13.33;;;9.90;;
20894;SDS011;10607;42.066;24.742;2024-03-02T13:05:31;10.27;;;7.93;;
20894;SDS011;10607;42.066;24.742;2024-03-02T13:07:57;11.13;;;7.97;;
20894;SDS011;10607;42.066;24.742;2024-03-02T13:10:23;11.20;;;9.20;;
20894;SDS011;10607;42.066;24.742;2024-03-02T13:12:48;12.47;;;9.33;;
20894;SDS011;10607;42.066;24.742;2024-03-02T13:15:13;11.87;;;8.57;;
20894;SDS011;10607;42.066;24.742;2024-03-02T13:17:40;17.90;;;13.13;;
20894;SDS011;10607;42.066;24.742;2024-03-02T13:20:05;32.07;;;19.90;;
20894;SDS011;10607;42.066;24.742;2024-03-02T13:22:35;35.60;;;21.60;;
20894;SDS011;10607;42.066;24.742;2024-03-02T13:25:00;37.97;;;22.93;;
20894;SDS011;10607;42.066;24.742;2024-03-02T13:27:28;28.87;;;19.63;;
20894;SDS011;10607;42.066;24.742;2024-03-02T13:29:54;31.50;;;19.47;;
20894;SDS011;10607;42.066;24.742;2024-03-02T13:32:19;25.77;;;16.97;;
20894;SDS011;10607;42.066;24.742;2024-03-02T13:34:48;25.37;;;17.63;;
20894;SDS011;10607;42.066;24.742;2024-03-02T13:37:14;26.30;;;16.60;;
20894;SDS011;10607;42.066;24.742;2024-03-02T13:39:39;26.73;;;18.30;;
20894;SDS011;10607;42.066;24.742;2024-03-02T13:42:08;31.33;;;18.87;;
20894;SDS011;10607;42.066;24.742;2024-03-02T13:44:33;30.20;;;18.60;;
20894;SDS011;10607;42.066;24.742;2024-03-02T13:46:59;28.60;;;18.17;;
20894;SDS011;10607;42.066;24.742;2024-03-02T13:49:24;27.77;;;18.33;;
20894;SDS011;10607;42.066;24.742;2024-03-02T13:51:53;29.37;;;19.90;;
20894;SDS011;10607;42.066;24.742;2024-03-02T13:54:20;28.80;;;20.10;;
20894;SDS011;10607;42.066;24.742;2024-03-02T13:56:45;29.23;;;19.33;;
20894;SDS011;10607;42.066;24.742;2024-03-02T13:59:11;31.87;;;20.27;;
20894;SDS011;10607;42.066;24.742;2024-03-02T14:01:36;30.57;;;21.17;;
20894;SDS011;10607;42.066;24.742;2024-03-02T14:04:02;34.33;;;21.83;;
20894;SDS011;10607;42.066;24.742;2024-03-02T14:06:27;34.70;;;23.07;;
20894;SDS011;10607;42.066;24.742;2024-03-02T14:08:52;34.90;;;21.30;;